METAR de aeropuertos de Murcia y cercanos

 

LEMI - Murcia/Corvera
Actualización: 31/03/2020 14:30
Mostly Cloudy
Mostly Cloudy
 Viento del E
Viento: E 9 km/h
Temperatura: 15°C
Rocío: 12°C
Humedad: 82%
Barómetro: 1008 hPa
Nubosidad: Mostly Cloudy
Visibilidad: 10 km
Cloud details: Mostly Cloudy 610 m
2020/03/31 12:30 LEMI 311230Z 10005KT 050V150 9999 BKN020 15/12 Q1008
LERI - Murcia/Alcantarilla
Actualización: 31/03/2020 14:00
Mostly Cloudy
Mostly Cloudy
 Viento del E
Viento: E 6 km/h
Temperatura: 15°C
Rocío: 11°C
Humedad: 77%
Barómetro: 1009 hPa
Nubosidad: Mostly Cloudy
Visibilidad: 9 km
Cloud details: Partly Cloudy 335 m
Mostly Cloudy 975 m
2020/03/31 12:00 LERI 311200Z 10003KT 050V150 9000 SCT011 BKN032 15/11 Q1009 NOSIG
LELC - Murcia/San Javier
Actualización: 31/03/2020 14:30
Partly Cloudy
Partly Cloudy
 Viento del NE
Viento: NE 13 km/h
Temperatura: 18°C
Rocío: 13°C
Humedad: 73%
Barómetro: 1009 hPa
Nubosidad: Partly Cloudy
Visibilidad: 10 km
Cloud details: Partly Cloudy 1158 m
2020/03/31 12:30 LELC 311230Z 04007KT 360V080 9999 SCT038 18/13 Q1009 NOSIG
 
LEAL - Alicante
Actualización: 31/03/2020 14:30
Partly Cloudy
Partly Cloudy
 Viento del E
Viento: E 9 km/h
Temperatura: 18°C
Rocío: 10°C
Humedad: 60%
Barómetro: 1008 hPa
Nubosidad: Partly Cloudy
Visibilidad: 10 km
Cloud details: Partly Cloudy 762 m
Partly Cloudy 1981 m
2020/03/31 12:30 LEAL 311230Z 10005KT 040V150 9999 SCT025 SCT065 18/10 Q1008 NOSIG
LEAB - Albacete
Actualización: 31/03/2020 14:00
Few Clouds
Few Clouds
 Viento del SSE
Viento: SSE 20 km/h
Temperatura: 13°C
Rocío: 8°C
Humedad: 72%
Barómetro: 1008 hPa
Nubosidad: Few Clouds
Visibilidad: 10 km
Cloud details: Few Clouds 762 m
2020/03/31 12:00 LEAB 311200Z 16011KT 130V200 9999 FEW025 13/08 Q1008 NOSIG
LEAM - Almería
Actualización: 31/03/2020 14:30
Mostly Cloudy
Mostly Cloudy
 Viento del S
Viento: S 15 km/h
Temperatura: 17°C
Rocío: 12°C
Humedad: 73%
Barómetro: 1008 hPa
Nubosidad: Mostly Cloudy
Visibilidad: 10 km
Cloud details: Few Clouds 610 m
Partly Cloudy 1524 m
Mostly Cloudy 2134 m
2020/03/31 12:30 LEAM 311230Z 17008KT 9999 FEW020 SCT050 BKN070 17/12 Q1008

La estación de MeteoMurcia.com, publica sus datos en los siguientes proyectos:

Weather Underground PWS IMURCIAP2 Meteoclimatic www.awekas.at

W3Counter
Web Analytics